Time;durP1;ratioP1;P1;durP2;ratioP2;P2;SDS_P1;SDS_P2;PMS_P1;PMS_P2;Temp;Humidity;BMP_temperature;BMP_pressure;BME280_temperature;BME280_humidity;BME280_pressure;Samples;Min_cycle;Max_cycle;Signal;HPM_P1;HPM_P2
2024/04/15 00:01:57;;;;;;;7.90;1.50;;;7.90;99.90;;;;;;5346563;26;20238;-54
2024/04/15 00:04:25;;;;;;;5.30;1.40;;;7.90;99.90;;;;;;5344108;26;20245;-53
2024/04/15 00:06:51;;;;;;;6.50;2.03;;;7.90;99.90;;;;;;5348060;26;20273;-55
2024/04/15 00:09:19;;;;;;;9.00;2.30;;;7.80;99.90;;;;;;5309085;26;20242;-57
2024/04/15 00:11:46;;;;;;;6.30;2.13;;;7.80;99.90;;;;;;5342721;26;21533;-54
2024/04/15 00:14:15;;;;;;;7.50;1.77;;;7.80;99.90;;;;;;5350302;26;20233;-57
2024/04/15 00:16:41;;;;;;;7.30;2.47;;;7.80;99.90;;;;;;5331668;26;20793;-54
2024/04/15 00:19:12;;;;;;;5.20;1.30;;;7.80;99.90;;;;;;5334651;26;20273;-57
2024/04/15 00:21:38;;;;;;;9.90;1.80;;;7.80;99.90;;;;;;5353628;26;20358;-55
2024/04/15 00:24:08;;;;;;;6.93;1.47;;;7.80;99.90;;;;;;5323822;26;20245;-56
2024/04/15 00:26:34;;;;;;;6.87;1.40;;;7.80;99.90;;;;;;5356525;26;20230;-54
2024/04/15 00:29:03;;;;;;;8.27;1.40;;;7.80;99.90;;;;;;5340397;26;20495;-51
2024/04/15 00:31:29;;;;;;;6.23;1.30;;;7.80;99.90;;;;;;5348772;26;20280;-54
2024/04/15 00:33:57;;;;;;;7.07;1.63;;;7.80;99.90;;;;;;5358913;26;20233;-53
2024/04/15 00:36:27;;;;;;;8.67;1.60;;;7.80;99.90;;;;;;5334467;26;20371;-53
2024/04/15 00:38:55;;;;;;;10.43;1.60;;;7.80;99.90;;;;;;5354222;26;20762;-55
2024/04/15 00:41:21;;;;;;;8.87;1.80;;;7.80;99.90;;;;;;5315921;26;21148;-55
2024/04/15 00:43:50;;;;;;;5.57;1.80;;;7.80;99.90;;;;;;5339876;26;20351;-54
2024/04/15 00:46:16;;;;;;;8.33;1.60;;;7.70;99.90;;;;;;5349438;26;20264;-53
2024/04/15 00:48:45;;;;;;;5.90;1.40;;;7.70;99.90;;;;;;5356901;26;20234;-54
2024/04/15 00:51:12;;;;;;;10.00;2.03;;;7.70;99.90;;;;;;5325416;26;20335;-49
2024/04/15 00:53:44;;;;;;;7.90;1.70;;;7.70;99.90;;;;;;5350449;26;20338;-51
2024/04/15 00:56:12;;;;;;;9.63;1.50;;;7.80;99.90;;;;;;5306805;26;20280;-52
2024/04/15 00:58:42;;;;;;;8.90;2.27;;;7.70;99.90;;;;;;5348358;26;20729;-51
2024/04/15 01:01:09;;;;;;;8.10;2.00;;;7.70;99.90;;;;;;5348759;26;20273;-53
2024/04/15 01:03:38;;;;;;;8.37;1.87;;;7.70;99.90;;;;;;5365341;26;20732;-52
2024/04/15 01:06:05;;;;;;;6.77;1.90;;;7.70;99.90;;;;;;5338132;26;20338;-53
2024/04/15 01:08:34;;;;;;;4.70;1.50;;;7.70;99.90;;;;;;5348073;26;20942;-55
2024/04/15 01:11:03;;;;;;;8.20;1.60;;;7.60;99.90;;;;;;5339731;26;20656;-50
2024/04/15 01:13:31;;;;;;;10.60;1.73;;;7.60;99.90;;;;;;5357133;26;20238;-51
2024/04/15 01:15:58;;;;;;;8.90;1.87;;;7.60;99.90;;;;;;5356543;26;20312;-52
2024/04/15 01:18:28;;;;;;;7.40;1.77;;;7.60;99.90;;;;;;5359702;26;21042;-54
2024/04/15 01:20:56;;;;;;;8.43;2.00;;;7.50;99.90;;;;;;5353161;26;20262;-55
2024/04/15 01:23:26;;;;;;;8.17;2.00;;;7.50;99.90;;;;;;5350487;26;20619;-56
2024/04/15 01:25:55;;;;;;;6.67;1.70;;;7.50;99.90;;;;;;5334925;26;20338;-59
2024/04/15 01:28:23;;;;;;;6.43;1.80;;;7.50;99.90;;;;;;5309427;26;20238;-55
2024/04/15 01:30:49;;;;;;;4.50;1.30;;;7.50;99.90;;;;;;5352410;26;20651;-57
2024/04/15 01:33:18;;;;;;;6.60;1.33;;;7.50;99.90;;;;;;5355504;26;20600;-54
2024/04/15 01:35:43;;;;;;;7.00;1.63;;;7.40;99.90;;;;;;5360104;26;20230;-56
2024/04/15 01:38:12;;;;;;;5.63;1.47;;;7.30;99.90;;;;;;5326492;26;20384;-54
2024/04/15 01:40:38;;;;;;;11.30;1.70;;;7.30;99.90;;;;;;5349546;26;20249;-52
2024/04/15 01:43:09;;;;;;;4.10;1.33;;;7.30;99.90;;;;;;5317783;26;20557;-57
2024/04/15 01:45:35;;;;;;;10.53;1.90;;;7.30;99.90;;;;;;5353527;26;21095;-56
2024/04/15 01:48:04;;;;;;;5.47;1.37;;;7.20;99.90;;;;;;5354945;26;20273;-58
2024/04/15 01:50:30;;;;;;;8.33;1.70;;;7.10;99.90;;;;;;5354249;26;20766;-58
2024/04/15 01:52:59;;;;;;;8.90;1.57;;;7.00;99.90;;;;;;5330880;26;20245;-56
2024/04/15 01:55:25;;;;;;;4.77;1.33;;;6.90;99.90;;;;;;5355227;26;20716;-53
2024/04/15 01:57:53;;;;;;;5.37;1.60;;;6.90;99.90;;;;;;5341483;26;20600;-50
2024/04/15 02:00:23;;;;;;;5.17;1.70;;;6.90;99.90;;;;;;5351218;26;20254;-54
2024/04/15 02:02:51;;;;;;;5.63;1.50;;;6.90;99.90;;;;;;5331344;26;20237;-51
2024/04/15 02:05:17;;;;;;;5.17;1.57;;;6.80;99.90;;;;;;5345385;26;20321;-53
2024/04/15 02:07:46;;;;;;;6.20;2.13;;;6.70;99.90;;;;;;5356657;26;20584;-54
2024/04/15 02:10:14;;;;;;;7.87;1.57;;;6.60;99.90;;;;;;5334656;26;20331;-54
2024/04/15 02:12:43;;;;;;;4.87;2.30;;;6.40;99.90;;;;;;5351373;26;20700;-49
2024/04/15 02:15:09;;;;;;;7.37;2.07;;;6.40;99.90;;;;;;5309078;26;20300;-51
2024/04/15 02:17:41;;;;;;;7.23;1.80;;;6.40;99.90;;;;;;5360705;26;20233;-51
2024/04/15 02:20:08;;;;;;;8.63;1.77;;;6.40;99.90;;;;;;5342780;26;20246;-50
2024/04/15 02:22:36;;;;;;;5.77;1.60;;;6.20;99.90;;;;;;5362336;26;20226;-51
2024/04/15 02:25:03;;;;;;;3.87;1.70;;;6.20;99.90;;;;;;5338243;26;20241;-52
2024/04/15 02:27:35;;;;;;;4.73;1.53;;;6.10;99.90;;;;;;5351368;26;20678;-50
2024/04/15 02:30:02;;;;;;;4.67;1.33;;;6.10;99.90;;;;;;5321826;26;20288;-52
2024/04/15 02:32:30;;;;;;;5.03;1.50;;;6.00;99.90;;;;;;5340699;26;20246;-54
2024/04/15 02:34:59;;;;;;;9.17;1.60;;;5.90;99.90;;;;;;5349628;26;20280;-56
2024/04/15 02:37:27;;;;;;;7.37;1.50;;;5.90;99.90;;;;;;5358325;26;21117;-55
2024/04/15 02:39:53;;;;;;;10.90;1.77;;;5.80;99.90;;;;;;5356118;26;20276;-58
2024/04/15 02:42:21;;;;;;;2.97;1.50;;;5.80;99.90;;;;;;5342284;26;20250;-56
2024/04/15 02:44:47;;;;;;;3.53;1.37;;;5.90;99.90;;;;;;5313204;26;20325;-57
2024/04/15 02:47:16;;;;;;;4.13;1.27;;;5.90;99.90;;;;;;5340069;26;20257;-56
2024/04/15 02:49:42;;;;;;;6.80;1.53;;;5.90;99.90;;;;;;5355677;26;20307;-58
2024/04/15 02:52:13;;;;;;;4.20;1.67;;;5.90;99.90;;;;;;5356588;26;20325;-55
2024/04/15 02:54:38;;;;;;;4.57;1.90;;;5.90;99.90;;;;;;5362775;26;20230;-52
2024/04/15 02:57:07;;;;;;;10.13;1.80;;;5.90;99.90;;;;;;5338764;26;20245;-52
2024/04/15 02:59:33;;;;;;;6.80;1.50;;;5.90;99.90;;;;;;5328647;26;20675;-50
2024/04/15 03:02:02;;;;;;;7.70;2.23;;;5.90;99.90;;;;;;5336418;26;20281;-51
2024/04/15 03:04:30;;;;;;;6.07;1.43;;;5.90;99.90;;;;;;5365586;26;20404;-50
2024/04/15 03:06:58;;;;;;;8.17;2.20;;;5.90;99.90;;;;;;5359216;26;20283;-51
2024/04/15 03:09:27;;;;;;;7.70;1.50;;;5.90;99.90;;;;;;5363551;26;20280;-49
2024/04/15 03:11:55;;;;;;;9.57;1.77;;;5.90;99.90;;;;;;5333033;26;20250;-54
2024/04/15 03:14:21;;;;;;;9.10;1.80;;;5.90;99.90;;;;;;5303885;26;20276;-53
2024/04/15 03:16:50;;;;;;;6.60;1.60;;;5.90;99.90;;;;;;5352380;26;20234;-51
2024/04/15 03:19:16;;;;;;;9.47;1.50;;;5.90;99.90;;;;;;5348021;26;20753;-51
2024/04/15 03:21:44;;;;;;;9.23;1.60;;;5.90;99.90;;;;;;5353659;26;20237;-52
2024/04/15 03:24:11;;;;;;;8.23;1.73;;;5.90;99.90;;;;;;5359147;26;20969;-53
2024/04/15 03:26:42;;;;;;;6.70;1.50;;;5.80;99.90;;;;;;5358290;26;20275;-53
2024/04/15 03:29:08;;;;;;;7.90;1.77;;;5.80;99.90;;;;;;5320094;26;20694;-52
2024/04/15 03:31:36;;;;;;;6.33;1.70;;;5.80;99.90;;;;;;5325185;26;20588;-52
2024/04/15 03:34:03;;;;;;;7.60;1.63;;;5.80;99.90;;;;;;5344140;26;20419;-51
2024/04/15 03:36:31;;;;;;;7.10;1.90;;;5.80;99.90;;;;;;5336164;26;20327;-52
2024/04/15 03:38:59;;;;;;;7.63;1.67;;;5.80;99.90;;;;;;5363159;26;20281;-55
2024/04/15 03:41:28;;;;;;;6.03;1.97;;;5.80;99.90;;;;;;5345338;26;20238;-53
2024/04/15 03:43:59;;;;;;;7.63;1.60;;;5.70;99.90;;;;;;5329643;26;20280;-56
2024/04/15 03:46:25;;;;;;;11.47;1.67;;;5.70;99.90;;;;;;5309329;26;20245;-51
2024/04/15 03:48:53;;;;;;;8.23;1.90;;;5.70;99.90;;;;;;5364033;26;20281;-56
2024/04/15 03:51:19;;;;;;;7.63;1.63;;;5.70;99.90;;;;;;5352563;26;20282;-57
2024/04/15 03:53:48;;;;;;;9.87;1.50;;;5.70;99.90;;;;;;5355176;26;20278;-57
2024/04/15 03:56:13;;;;;;;5.07;2.00;;;5.70;99.90;;;;;;5347545;26;20596;-57
2024/04/15 03:58:42;;;;;;;4.47;1.50;;;5.60;99.90;;;;;;5332295;26;20332;-53
2024/04/15 04:01:10;;;;;;;6.23;2.00;;;5.60;99.90;;;;;;5316862;26;20254;-56
2024/04/15 04:03:39;;;;;;;5.60;1.23;;;5.60;99.90;;;;;;5358637;26;20233;-56
2024/04/15 04:06:05;;;;;;;9.30;1.50;;;5.60;99.90;;;;;;5352078;26;20284;-56
2024/04/15 04:08:33;;;;;;;7.07;2.33;;;5.60;99.90;;;;;;5345034;26;20272;-51
2024/04/15 04:11:04;;;;;;;10.43;1.93;;;5.60;99.90;;;;;;5333552;26;20665;-57
2024/04/15 04:13:35;;;;;;;6.07;1.50;;;5.60;99.90;;;;;;5362475;26;20544;-56
2024/04/15 04:16:01;;;;;;;8.17;1.80;;;5.60;99.90;;;;;;5308364;26;20254;-57
2024/04/15 04:18:33;;;;;;;5.03;1.70;;;5.60;99.90;;;;;;5364302;26;20703;-54
2024/04/15 04:20:59;;;;;;;6.63;1.30;;;5.60;99.90;;;;;;5344824;26;20873;-52
2024/04/15 04:23:27;;;;;;;2.20;1.30;;;5.60;99.90;;;;;;5345548;26;20323;-56
2024/04/15 04:25:53;;;;;;;6.13;1.60;;;5.50;99.90;;;;;;5347480;26;20261;-53
2024/04/15 04:28:22;;;;;;;9.60;1.77;;;5.50;99.90;;;;;;5360690;26;20238;-55
2024/04/15 04:30:48;;;;;;;7.23;1.67;;;5.50;99.90;;;;;;5326854;26;20466;-56
2024/04/15 04:33:16;;;;;;;7.43;2.50;;;5.50;99.90;;;;;;5326593;26;20775;-55
2024/04/15 04:35:44;;;;;;;11.20;1.67;;;5.40;99.90;;;;;;5358394;26;20280;-57
2024/04/15 04:38:13;;;;;;;7.87;1.80;;;5.50;99.90;;;;;;5341111;26;20510;-54
2024/04/15 04:40:39;;;;;;;5.80;1.80;;;5.50;99.90;;;;;;5357670;26;20234;-58
2024/04/15 04:43:07;;;;;;;7.17;1.80;;;5.50;99.90;;;;;;5355702;26;20264;-58
2024/04/15 04:45:33;;;;;;;7.83;1.80;;;5.50;99.90;;;;;;5325609;26;20275;-50
2024/04/15 04:48:02;;;;;;;4.17;1.57;;;5.50;99.90;;;;;;5322196;26;20271;-54
2024/04/15 04:50:28;;;;;;;12.47;2.07;;;5.50;99.90;;;;;;5355040;26;20257;-50
2024/04/15 04:52:59;;;;;;;4.83;1.50;;;5.50;99.90;;;;;;5342282;26;20393;-52
2024/04/15 04:55:24;;;;;;;6.67;1.90;;;5.50;99.90;;;;;;5349927;26;21138;-54
2024/04/15 04:57:53;;;;;;;10.53;2.10;;;5.60;99.90;;;;;;5363881;26;20281;-52
2024/04/15 05:00:19;;;;;;;8.23;2.03;;;5.60;99.90;;;;;;5336896;26;20253;-52
2024/04/15 05:02:48;;;;;;;9.43;2.00;;;5.70;99.90;;;;;;5319053;26;20288;-54
2024/04/15 05:05:14;;;;;;;6.80;1.40;;;5.70;99.90;;;;;;5323736;26;20893;-53
2024/04/15 05:07:42;;;;;;;7.30;1.40;;;5.80;99.90;;;;;;5345064;26;20229;-54
2024/04/15 05:10:11;;;;;;;9.50;2.30;;;5.90;99.90;;;;;;5358012;26;20230;-55
2024/04/15 05:12:40;;;;;;;6.30;1.50;;;5.90;99.90;;;;;;5365431;26;20249;-53
2024/04/15 05:15:07;;;;;;;4.87;1.57;;;5.80;99.90;;;;;;5330841;26;20245;-52
2024/04/15 05:17:37;;;;;;;8.63;1.73;;;5.80;99.90;;;;;;5331304;26;20249;-54
2024/04/15 05:20:07;;;;;;;7.70;1.77;;;5.80;99.90;;;;;;5343888;26;20245;-53
2024/04/15 05:22:36;;;;;;;6.60;1.90;;;5.80;99.90;;;;;;5353765;26;20290;-53
2024/04/15 05:25:02;;;;;;;13.00;3.17;;;5.80;99.90;;;;;;5355855;26;20234;-55
2024/04/15 05:27:35;;;;;;;7.60;1.93;;;5.80;99.90;;;;;;5365658;26;20237;-52
2024/04/15 05:30:01;;;;;;;29.87;4.53;;;5.90;99.90;;;;;;5340699;26;20287;-49
2024/04/15 05:32:30;;;;;;;6.13;2.23;;;5.90;99.90;;;;;;5342918;26;20238;-51
2024/04/15 05:34:55;;;;;;;6.27;1.60;;;6.00;99.90;;;;;;5326892;26;20250;-54
2024/04/15 05:37:24;;;;;;;5.27;2.00;;;6.10;99.90;;;;;;5346345;26;20254;-54
2024/04/15 05:39:50;;;;;;;4.87;1.60;;;6.10;99.90;;;;;;5343146;26;20373;-54
2024/04/15 05:42:18;;;;;;;7.13;2.17;;;6.30;99.90;;;;;;5367797;26;20232;-55
2024/04/15 05:44:47;;;;;;;9.37;2.13;;;6.30;99.90;;;;;;5335012;26;20961;-49
2024/04/15 05:47:15;;;;;;;7.27;2.13;;;6.40;99.90;;;;;;5337004;26;20312;-53
2024/04/15 05:49:41;;;;;;;12.63;3.10;;;6.50;99.90;;;;;;5320066;26;20611;-50
2024/04/15 05:52:10;;;;;;;9.27;2.50;;;6.60;99.90;;;;;;5357989;26;20288;-55
2024/04/15 05:54:36;;;;;;;36.70;7.37;;;6.70;99.90;;;;;;5349161;26;20292;-53
2024/04/15 05:57:04;;;;;;;16.67;3.73;;;6.80;99.90;;;;;;5353127;26;20249;-55
2024/04/15 05:59:30;;;;;;;59.77;10.73;;;6.80;99.90;;;;;;5356635;26;21160;-53
2024/04/15 06:02:01;;;;;;;39.03;9.07;;;6.90;99.90;;;;;;5329745;26;20734;-53
2024/04/15 06:04:28;;;;;;;10.40;3.17;;;6.90;99.90;;;;;;5345821;26;20238;-53
2024/04/15 06:06:56;;;;;;;10.13;2.50;;;7.00;99.90;;;;;;5322581;26;20923;-56
2024/04/15 06:09:22;;;;;;;16.80;3.73;;;7.00;99.90;;;;;;5352197;26;20284;-57
2024/04/15 06:11:50;;;;;;;14.87;3.43;;;7.10;99.90;;;;;;5348249;26;21137;-56
2024/04/15 06:14:21;;;;;;;10.43;2.83;;;7.20;99.90;;;;;;5332639;26;20640;-54
2024/04/15 06:16:50;;;;;;;10.90;3.30;;;7.30;99.90;;;;;;5324731;26;20300;-51
2024/04/15 06:19:18;;;;;;;11.10;3.53;;;7.40;99.90;;;;;;5303980;26;20845;-53
2024/04/15 06:21:47;;;;;;;9.43;3.10;;;7.50;99.90;;;;;;5293877;26;20367;-53
2024/04/15 06:24:13;;;;;;;10.63;3.17;;;7.60;99.90;;;;;;5339016;26;20253;-54
2024/04/15 06:26:43;;;;;;;11.10;3.30;;;7.70;99.90;;;;;;5342272;26;20343;-52
2024/04/15 06:29:09;;;;;;;11.93;2.50;;;7.70;99.90;;;;;;5307110;26;20264;-55
2024/04/15 06:31:38;;;;;;;5.17;2.13;;;7.80;99.90;;;;;;5333088;26;20756;-53
2024/04/15 06:34:04;;;;;;;10.57;2.27;;;7.90;99.90;;;;;;5350210;26;20343;-55
2024/04/15 06:36:35;;;;;;;13.43;2.77;;;8.00;99.90;;;;;;5311229;26;20593;-53
2024/04/15 06:39:01;;;;;;;6.27;2.47;;;8.20;99.90;;;;;;5342068;26;20615;-52
2024/04/15 06:41:30;;;;;;;12.80;2.47;;;8.30;99.90;;;;;;5334133;26;20241;-48
2024/04/15 06:43:55;;;;;;;7.60;2.77;;;8.40;99.90;;;;;;5343873;26;20277;-53
2024/04/15 06:46:25;;;;;;;7.27;2.60;;;8.60;99.90;;;;;;5359515;26;20238;-53
2024/04/15 06:48:52;;;;;;;6.80;2.40;;;8.70;99.90;;;;;;5334803;26;20325;-55
2024/04/15 06:51:20;;;;;;;6.37;2.97;;;8.70;99.90;;;;;;5310245;26;20253;-53
2024/04/15 06:53:49;;;;;;;8.00;2.30;;;8.80;99.90;;;;;;5342792;26;20551;-56
2024/04/15 06:56:18;;;;;;;9.73;1.90;;;8.80;99.90;;;;;;5337860;26;20281;-53
2024/04/15 06:58:44;;;;;;;5.50;1.87;;;8.90;99.90;;;;;;5337846;26;21194;-55
2024/04/15 07:01:13;;;;;;;7.70;2.30;;;9.00;99.90;;;;;;5362415;26;21086;-57
2024/04/15 07:03:39;;;;;;;7.47;2.50;;;9.00;99.90;;;;;;5333986;26;20241;-55
2024/04/15 07:06:08;;;;;;;5.83;1.50;;;9.10;99.90;;;;;;5351951;26;20249;-51
2024/04/15 07:08:34;;;;;;;5.83;1.70;;;9.10;99.90;;;;;;5318291;26;20321;-52
2024/04/15 07:11:06;;;;;;;5.40;1.70;;;9.10;99.90;;;;;;5334722;26;20330;-54
2024/04/15 07:13:32;;;;;;;7.87;1.90;;;9.10;99.90;;;;;;5350161;26;20230;-52
2024/04/15 07:16:00;;;;;;;6.87;1.80;;;9.20;99.90;;;;;;5361434;26;20229;-55
2024/04/15 07:18:27;;;;;;;9.87;2.13;;;9.30;99.90;;;;;;5346581;26;20822;-54
2024/04/15 07:20:55;;;;;;;4.47;1.87;;;9.30;99.90;;;;;;5337619;26;20254;-57
2024/04/15 07:23:21;;;;;;;7.97;2.00;;;9.20;99.90;;;;;;5320240;26;21155;-53
2024/04/15 07:25:50;;;;;;;6.30;1.77;;;9.20;99.90;;;;;;5350200;26;20230;-56
2024/04/15 07:28:18;;;;;;;2.83;1.57;;;9.20;99.90;;;;;;5348358;26;20294;-52
2024/04/15 07:30:47;;;;;;;5.60;1.43;;;9.30;99.90;;;;;;5349849;26;21121;-53
2024/04/15 07:33:13;;;;;;;7.53;1.83;;;9.40;99.90;;;;;;5363084;26;20234;-57
2024/04/15 07:35:42;;;;;;;5.93;1.90;;;9.50;99.90;;;;;;5284551;26;20253;-54
2024/04/15 07:38:08;;;;;;;6.73;1.70;;;9.60;99.90;;;;;;5314982;26;20909;-53
2024/04/15 07:40:37;;;;;;;6.47;1.40;;;9.70;99.90;;;;;;5351388;26;20246;-55
2024/04/15 07:43:03;;;;;;;6.40;1.40;;;9.70;99.90;;;;;;5337785;26;20751;-54
2024/04/15 07:45:36;;;;;;;3.03;1.20;;;9.70;99.90;;;;;;5322879;26;20250;-52
2024/04/15 07:48:03;;;;;;;7.23;1.67;;;9.70;99.90;;;;;;5357698;26;20277;-53
2024/04/15 07:50:31;;;;;;;3.00;1.30;;;9.70;99.90;;;;;;5325734;26;20867;-51
2024/04/15 07:52:57;;;;;;;3.97;1.63;;;9.90;99.90;;;;;;5315310;26;20241;-56
2024/04/15 07:55:26;;;;;;;4.97;1.53;;;10.00;99.90;;;;;;5360256;26;20284;-53
2024/04/15 07:57:53;;;;;;;9.23;1.60;;;10.00;99.90;;;;;;5345216;26;20296;-50
2024/04/15 08:00:21;;;;;;;6.40;1.97;;;10.20;99.90;;;;;;5359171;26;20238;-54
2024/04/15 08:02:50;;;;;;;4.27;1.10;;;10.30;99.90;;;;;;5316135;26;20801;-53
2024/04/15 08:05:20;;;;;;;2.80;1.27;;;10.40;99.90;;;;;;5321501;26;20408;-55
2024/04/15 08:07:46;;;;;;;4.80;1.50;;;10.50;99.90;;;;;;5301574;26;20292;-54
2024/04/15 08:10:14;;;;;;;2.47;1.13;;;10.50;99.90;;;;;;5366442;26;20233;-53
2024/04/15 08:12:40;;;;;;;5.87;1.40;;;10.50;99.90;;;;;;5343426;26;20237;-55
2024/04/15 08:15:09;;;;;;;4.83;1.83;;;10.40;99.90;;;;;;5366024;26;20238;-56
2024/04/15 08:17:35;;;;;;;7.93;2.10;;;10.30;99.90;;;;;;5343537;26;20229;-48
2024/04/15 08:20:08;;;;;;;5.40;2.07;;;10.30;99.90;;;;;;5292524;26;20242;-56
2024/04/15 08:22:34;;;;;;;4.00;1.97;;;10.40;99.90;;;;;;5316024;26;20857;-59
2024/04/15 08:25:08;;;;;;;4.03;2.13;;;10.40;99.90;;;;;;5356770;26;20357;-53
2024/04/15 08:27:34;;;;;;;5.07;2.43;;;10.50;99.90;;;;;;5360911;26;20560;-59
2024/04/15 08:30:02;;;;;;;3.50;1.97;;;10.50;99.90;;;;;;5350784;26;20292;-52
2024/04/15 08:32:29;;;;;;;5.13;2.13;;;10.50;99.90;;;;;;5343817;26;20250;-59
2024/04/15 08:34:57;;;;;;;6.07;2.10;;;10.40;99.90;;;;;;5350877;26;20420;-54
2024/04/15 08:37:26;;;;;;;5.07;1.93;;;10.60;99.90;;;;;;5334674;26;20791;-59
2024/04/15 08:39:55;;;;;;;6.47;1.73;;;10.70;99.90;;;;;;5319156;26;20250;-52
2024/04/15 08:42:25;;;;;;;5.87;2.37;;;10.80;99.90;;;;;;5366256;26;21175;-60
2024/04/15 08:44:54;;;;;;;9.97;2.27;;;10.90;99.90;;;;;;5339821;26;20259;-56
2024/04/15 08:47:25;;;;;;;5.93;2.40;;;11.00;99.90;;;;;;5353900;26;20238;-59
2024/04/15 08:49:54;;;;;;;5.87;2.00;;;11.30;99.90;;;;;;5351077;26;20323;-55
2024/04/15 08:52:21;;;;;;;9.37;2.60;;;11.50;99.90;;;;;;5340299;26;20737;-57
2024/04/15 08:54:52;;;;;;;11.20;3.10;;;11.60;99.90;;;;;;5323277;26;20297;-49
2024/04/15 08:57:19;;;;;;;3.60;1.93;;;11.80;99.90;;;;;;5364856;26;20230;-57
2024/04/15 08:59:48;;;;;;;6.13;2.27;;;12.00;99.90;;;;;;5346137;26;20242;-58
2024/04/15 09:02:17;;;;;;;3.90;2.00;;;12.00;99.90;;;;;;5347685;26;20982;-59
2024/04/15 09:04:47;;;;;;;6.53;2.50;;;11.90;99.90;;;;;;5353449;26;20281;-58
2024/04/15 09:07:13;;;;;;;5.63;2.50;;;11.90;99.90;;;;;;5337868;26;21092;-49
2024/04/15 09:09:41;;;;;;;3.53;2.10;;;11.80;99.90;;;;;;5329957;26;20288;-56
2024/04/15 09:12:10;;;;;;;5.83;2.27;;;11.80;99.90;;;;;;5358149;26;21153;-53
2024/04/15 09:14:39;;;;;;;5.60;2.10;;;11.90;99.90;;;;;;5350362;26;20356;-55
2024/04/15 09:17:05;;;;;;;5.67;2.67;;;12.00;99.90;;;;;;5341867;26;20340;-48
2024/04/15 09:19:34;;;;;;;3.60;2.03;;;12.20;99.90;;;;;;5355174;26;20310;-52
2024/04/15 09:22:01;;;;;;;4.63;1.77;;;12.10;99.90;;;;;;5336995;26;20284;-49
2024/04/15 09:24:30;;;;;;;4.70;1.60;;;12.10;99.90;;;;;;5363088;26;20712;-51
2024/04/15 09:26:56;;;;;;;4.93;1.87;;;12.00;99.90;;;;;;5319627;26;20289;-59
2024/04/15 09:29:27;;;;;;;8.17;1.77;;;12.10;99.90;;;;;;5352321;26;20242;-56
2024/04/15 09:31:55;;;;;;;5.00;1.87;;;12.20;99.90;;;;;;5337742;26;20666;-55
2024/04/15 09:34:23;;;;;;;6.03;2.00;;;12.20;99.90;;;;;;5349109;26;20261;-52
2024/04/15 09:36:59;;;;;;;5.70;1.87;;;12.10;99.90;;;;;;5335526;26;20238;-54
2024/04/15 09:39:31;;;;;;;4.93;1.63;;;12.20;99.90;;;;;;5363482;26;20230;-49
2024/04/15 09:42:00;;;;;;;3.67;2.07;;;12.20;99.90;;;;;;5309758;26;20242;-54
2024/04/15 09:44:32;;;;;;;6.23;1.90;;;12.30;99.90;;;;;;5356047;26;20257;-56
2024/04/15 09:47:02;;;;;;;5.67;1.90;;;12.40;99.90;;;;;;5345051;26;20335;-54
2024/04/15 09:49:32;;;;;;;2.47;1.17;;;12.30;99.90;;;;;;5365022;26;20242;-51
2024/04/15 09:52:03;;;;;;;4.10;1.93;;;12.30;99.90;;;;;;5323446;26;20331;-53
2024/04/15 09:54:37;;;;;;;2.80;1.47;;;12.30;99.90;;;;;;5359171;26;20264;-53
2024/04/15 09:57:12;;;;;;;5.00;1.97;;;12.40;99.90;;;;;;5306157;26;20268;-55
2024/04/15 09:59:47;;;;;;;4.23;1.40;;;12.30;99.90;;;;;;5362400;26;20315;-53
2024/04/15 10:02:23;;;;;;;4.37;1.47;;;12.40;99.90;;;;;;5347608;26;20261;-51
2024/04/15 10:04:55;;;;;;;7.80;2.03;;;12.50;99.90;;;;;;5350619;26;20724;-58
2024/04/15 10:07:27;;;;;;;5.53;1.67;;;12.70;99.90;;;;;;5338249;26;20257;-53
2024/04/15 10:09:56;;;;;;;4.20;1.73;;;12.80;99.90;;;;;;5346475;26;20260;-59
2024/04/15 10:12:22;;;;;;;5.60;1.97;;;12.80;99.90;;;;;;5319498;26;20261;-53
2024/04/15 10:14:54;;;;;;;3.73;1.90;;;12.70;99.90;;;;;;5360864;26;20284;-59
2024/04/15 10:17:24;;;;;;;4.20;1.63;;;12.70;99.90;;;;;;5349026;26;20573;-50
2024/04/15 10:19:53;;;;;;;3.43;1.77;;;12.70;99.90;;;;;;5362773;26;20293;-57
2024/04/15 10:22:22;;;;;;;4.80;1.80;;;12.90;99.90;;;;;;5319548;26;20257;-53
2024/04/15 10:24:51;;;;;;;2.07;1.40;;;12.90;99.90;;;;;;5348320;26;20234;-57
2024/04/15 10:27:17;;;;;;;2.43;1.77;;;13.10;99.90;;;;;;5324126;26;21523;-55
2024/04/15 10:29:45;;;;;;;5.67;1.97;;;13.20;99.90;;;;;;5360939;26;20242;-56
2024/04/15 10:32:14;;;;;;;4.00;1.33;;;13.20;99.90;;;;;;5347930;26;20250;-50
2024/04/15 10:34:44;;;;;;;3.87;1.33;;;13.30;99.90;;;;;;5362545;26;20276;-60
2024/04/15 10:37:11;;;;;;;4.27;1.47;;;13.30;99.90;;;;;;5339534;26;24592;-55
2024/04/15 10:39:47;;;;;;;3.13;1.50;;;13.40;99.90;;;;;;5326208;26;20249;-55
2024/04/15 10:42:13;;;;;;;5.97;1.40;;;13.50;99.90;;;;;;5361586;26;20272;-52
2024/04/15 10:44:41;;;;;;;4.47;1.67;;;13.60;99.90;;;;;;5320895;26;20239;-56
2024/04/15 10:47:07;;;;;;;2.63;1.50;;;13.80;99.90;;;;;;5347886;26;20234;-59
2024/04/15 10:49:38;;;;;;;3.07;1.50;;;13.80;99.90;;;;;;5346136;26;21011;-53
2024/04/15 10:52:05;;;;;;;2.67;1.33;;;13.60;99.90;;;;;;5348708;26;20230;-57
2024/04/15 10:54:35;;;;;;;4.03;1.10;;;13.60;99.90;;;;;;5321390;26;20454;-50
2024/04/15 10:57:02;;;;;;;7.70;2.20;;;13.50;99.90;;;;;;5358132;26;20246;-56
2024/04/15 10:59:31;;;;;;;5.10;1.53;;;13.40;99.90;;;;;;5318517;26;21118;-49
2024/04/15 11:01:57;;;;;;;4.30;1.70;;;13.40;99.90;;;;;;5362871;26;20291;-55
2024/04/15 11:04:27;;;;;;;3.17;1.40;;;13.30;99.90;;;;;;5335471;26;20680;-57
2024/04/15 11:06:57;;;;;;;1.87;1.40;;;13.30;99.90;;;;;;5352244;26;20336;-51
2024/04/15 11:09:25;;;;;;;6.17;1.87;;;13.20;99.90;;;;;;5322592;26;20288;-50
2024/04/15 11:11:53;;;;;;;2.50;1.23;;;13.20;99.90;;;;;;5346104;26;20254;-58
2024/04/15 11:14:22;;;;;;;3.43;1.07;;;13.20;99.90;;;;;;5320475;26;20297;-49
2024/04/15 11:16:48;;;;;;;3.77;1.50;;;13.30;99.90;;;;;;5348038;26;20890;-59
2024/04/15 11:19:19;;;;;;;6.17;1.47;;;13.40;99.90;;;;;;5338316;26;21009;-57
2024/04/15 11:21:45;;;;;;;4.57;1.57;;;13.40;99.90;;;;;;5320580;26;20347;-59
2024/04/15 11:24:16;;;;;;;3.83;1.40;;;13.50;99.90;;;;;;5348160;26;20340;-52
2024/04/15 11:26:45;;;;;;;3.13;1.83;;;13.60;99.90;;;;;;5304948;26;20250;-57
2024/04/15 11:29:16;;;;;;;3.27;2.00;;;13.70;99.90;;;;;;5322334;26;25952;-49
2024/04/15 11:31:42;;;;;;;4.73;1.70;;;13.70;99.90;;;;;;5341032;26;20288;-60
2024/04/15 11:34:11;;;;;;;4.53;1.37;;;13.70;99.90;;;;;;5329671;26;20281;-56
2024/04/15 11:36:40;;;;;;;4.23;1.57;;;13.70;99.90;;;;;;5349960;26;20705;-48
2024/04/15 11:39:08;;;;;;;2.50;1.20;;;13.60;99.80;;;;;;5339057;26;20808;-49
2024/04/15 11:41:37;;;;;;;2.63;1.37;;;13.50;99.90;;;;;;5338905;26;20303;-52
2024/04/15 11:44:06;;;;;;;4.87;1.50;;;13.50;99.60;;;;;;5318763;26;20254;-51
2024/04/15 11:46:32;;;;;;;3.47;1.70;;;13.50;99.90;;;;;;5351504;26;20237;-55
2024/04/15 11:49:01;;;;;;;3.77;1.57;;;13.50;99.90;;;;;;5336569;26;20238;-50
2024/04/15 11:51:28;;;;;;;3.43;1.40;;;13.30;99.90;;;;;;5343442;26;20865;-48
2024/04/15 11:53:57;;;;;;;3.73;1.43;;;13.30;99.70;;;;;;5343234;26;20264;-50
2024/04/15 11:56:23;;;;;;;4.37;1.20;;;13.20;99.00;;;;;;5314916;26;20284;-56
2024/04/15 11:58:54;;;;;;;2.70;1.67;;;13.20;99.10;;;;;;5357013;26;20360;-56
2024/04/15 12:01:20;;;;;;;4.47;1.80;;;13.10;98.80;;;;;;5295563;26;20300;-57
2024/04/15 12:03:49;;;;;;;3.47;1.33;;;13.10;99.10;;;;;;5337613;26;20238;-48
2024/04/15 12:06:15;;;;;;;5.37;1.83;;;13.00;98.80;;;;;;5344762;26;20732;-56
2024/04/15 12:08:44;;;;;;;2.80;1.30;;;13.00;99.00;;;;;;5356383;26;20280;-49
2024/04/15 12:11:12;;;;;;;3.17;1.40;;;13.00;99.50;;;;;;5324358;26;20350;-57
2024/04/15 12:13:41;;;;;;;3.83;1.63;;;13.00;99.50;;;;;;5350048;26;20276;-53
2024/04/15 12:16:10;;;;;;;7.80;2.10;;;12.90;99.50;;;;;;5312325;26;20304;-59
2024/04/15 12:18:38;;;;;;;2.93;1.40;;;12.90;99.10;;;;;;5347109;26;20292;-53
2024/04/15 12:21:04;;;;;;;5.10;1.40;;;12.80;99.50;;;;;;5346065;26;20783;-57
2024/04/15 12:23:33;;;;;;;4.20;1.90;;;12.80;99.70;;;;;;5357035;26;20840;-50
2024/04/15 12:25:59;;;;;;;4.60;1.90;;;12.80;99.60;;;;;;5348918;26;20338;-55
2024/04/15 12:28:28;;;;;;;3.90;1.57;;;12.70;99.80;;;;;;5320265;26;20238;-57
2024/04/15 12:30:54;;;;;;;4.27;2.17;;;12.60;99.60;;;;;;5316794;26;20787;-53
2024/04/15 12:33:25;;;;;;;4.47;1.27;;;12.60;99.70;;;;;;5343425;26;20234;-58
2024/04/15 12:35:52;;;;;;;3.90;2.00;;;12.60;99.90;;;;;;5340649;26;20309;-50
2024/04/15 12:38:22;;;;;;;1.90;1.73;;;12.60;99.90;;;;;;5350349;26;20341;-58
2024/04/15 12:40:49;;;;;;;6.17;2.30;;;12.60;99.90;;;;;;5344828;26;20690;-52
2024/04/15 12:43:18;;;;;;;3.23;2.33;;;12.60;99.90;;;;;;5320396;26;20281;-58
2024/04/15 12:45:44;;;;;;;6.63;2.07;;;12.60;99.90;;;;;;5322334;26;20716;-48
2024/04/15 12:48:17;;;;;;;7.03;2.03;;;12.70;99.90;;;;;;5353937;26;20292;-58
2024/04/15 12:50:48;;;;;;;5.30;1.70;;;12.90;99.90;;;;;;5344605;26;20294;-54
2024/04/15 12:53:17;;;;;;;5.00;2.47;;;13.10;99.90;;;;;;5360607;26;20301;-59
2024/04/15 12:55:45;;;;;;;7.20;2.30;;;13.30;99.90;;;;;;5340206;26;20801;-54
2024/04/15 12:58:14;;;;;;;6.07;2.90;;;13.30;99.90;;;;;;5299207;26;20246;-57